首页
METAR-TAF:

METAR-TAF

机场 :

突尼斯-迦太基国际机场

突尼斯, 突尼斯

纬度: 36-50N, 经度: 010-14E, 海拔: 3米

当前天气观测

该预报发布于26分钟前的23:00 UTC
风速3节,风向东南,在之间变化
温度 16°C
湿度 68%
气压 1017 hPa
能见度10公里或以上
少量云层高于3300英尺

METAR: DTTA 202300Z 14003KT 090V170 9999 FEW033 16/10 Q1017

时间: 00:26 (23:26 UTC)

预报

该预报发布于6小时和26分钟前的17:00 UTC
预报有效从20日的 18点(UTC)到 21日的 18点(UTC)
风速9节,风向
能见度10公里或以上
少量云层高于3300英尺
成为
从 20日的 19点(UTC)到 20日的 21点(UTC)
风速8节,风向
成为
从 20日的 22点(UTC)到 20日的 24点(UTC)
风速5节,风向
成为
从 21日的 13点(UTC)到 21日的 15点(UTC)
风速15节,风向北转东北

TAF: DTTA 201700Z 2018/2118 36009KT 9999 FEW033 BECMG 2019/2021 09008KT BECMG 2022/2024 18005KT BECMG 2113/2115 03015KT

超过4000个机场的气象观测和天气预报(METAR&TAF报告)。

可查询的气象台以黄色和红色小点在地图上表示。

将鼠标移到小点上方,可查看气象台名称。

然后点击查看天气观测和预报。

如需切换地图:点击带黑十字的绿色按钮放大地图;点击带横线的绿色按钮缩小地图;或者点击绿色箭头查看邻近地区的地图。


METAR-TAF: